Time,TemperatureF,DewpointF,PressureIn,WindDirection,WindDirectionDegrees,WindSpeedMPH,WindSpeedGustMPH,Humidity,HourlyPrecipIn,Conditions,Clouds,dailyrainin,SoftwareType,DateUTC
2013-09-28 00:13:00,48.0,47.0,29.79,WNW,295,0.0,-999.0,95,-99.99,,,-99.99,,2013-09-28 05:13:00,
2013-09-28 00:22:00,48.0,47.0,29.78,WNW,295,1.0,-999.0,95,-99.99,,,-99.99,,2013-09-28 05:22:00,
2013-09-28 00:53:00,48.0,47.0,29.78,WNW,295,0.0,-999.0,96,-99.99,,,-99.99,,2013-09-28 05:53:00,
2013-09-28 01:13:00,48.0,47.0,29.78,WNW,295,0.0,-999.0,96,-99.99,,,-99.99,,2013-09-28 06:13:00,
2013-09-28 01:22:00,48.0,47.0,29.77,WNW,295,0.0,-999.0,96,-99.99,,,-99.99,,2013-09-28 06:22:00,
2013-09-28 01:52:00,48.0,47.0,29.75,WNW,295,0.0,-999.0,96,-99.99,,,-99.99,,2013-09-28 06:52:00,
2013-09-28 02:12:00,48.0,47.0,29.75,WNW,295,0.0,-999.0,96,-99.99,,,-99.99,,2013-09-28 07:12:00,
2013-09-28 02:22:00,48.0,47.0,29.76,WNW,295,1.0,-999.0,96,-99.99,,,-99.99,,2013-09-28 07:22:00,
2013-09-28 02:52:00,48.0,47.0,29.74,WNW,295,0.0,-999.0,96,-99.99,,,-99.99,,2013-09-28 07:52:00,
2013-09-28 03:13:00,47.0,46.0,29.75,WNW,295,0.0,-999.0,96,-99.99,,,-99.99,,2013-09-28 08:13:00,
2013-09-28 03:21:00,47.0,46.0,29.75,WNW,295,0.0,-999.0,96,-99.99,,,-99.99,,2013-09-28 08:21:00,
2013-09-28 03:53:00,47.0,46.0,29.73,WNW,295,0.0,-999.0,96,-99.99,,,-99.99,,2013-09-28 08:53:00,
2013-09-28 04:11:00,47.0,46.0,29.73,WNW,295,0.0,-999.0,95,-99.99,,,-99.99,,2013-09-28 09:11:00,
2013-09-28 04:22:00,47.0,46.0,29.73,WNW,295,0.0,-999.0,95,-99.99,,,-99.99,,2013-09-28 09:22:00,
2013-09-28 04:54:00,46.0,45.0,29.72,WNW,295,0.0,-999.0,95,-99.99,,,-99.99,,2013-09-28 09:54:00,
2013-09-28 05:12:00,46.0,45.0,29.72,WNW,295,2.0,-999.0,95,-99.99,,,-99.99,,2013-09-28 10:12:00,
2013-09-28 05:22:00,46.0,45.0,29.72,WNW,295,3.0,-999.0,95,-99.99,,,-99.99,,2013-09-28 10:22:00,
2013-09-28 05:52:00,47.0,45.0,29.73,WNW,287,5.0,-999.0,92,-99.99,,,-99.99,,2013-09-28 10:52:00,
2013-09-28 06:12:00,47.0,44.0,29.72,WNW,287,4.0,-999.0,90,-99.99,,,-99.99,,2013-09-28 11:12:00,
2013-09-28 06:22:00,46.0,43.0,29.72,WNW,287,4.0,-999.0,90,-99.99,,,-99.99,,2013-09-28 11:22:00,
2013-09-28 06:52:00,46.0,43.0,29.72,WNW,287,4.0,-999.0,89,-99.99,,,-99.99,,2013-09-28 11:52:00,
2013-09-28 07:12:00,46.0,43.0,29.71,WNW,287,4.0,-999.0,89,-99.99,,,-99.99,,2013-09-28 12:12:00,
2013-09-28 07:22:00,45.0,42.0,29.71,WNW,287,3.0,-999.0,89,-99.99,,,-99.99,,2013-09-28 12:22:00,
2013-09-28 07:52:00,45.0,42.0,29.71,WNW,287,1.0,-999.0,90,-99.99,,,-99.99,,2013-09-28 12:52:00,
2013-09-28 08:12:00,45.0,43.0,29.71,WNW,287,2.0,-999.0,91,-99.99,,,-99.99,,2013-09-28 13:12:00,
2013-09-28 08:22:00,45.0,42.0,29.70,WNW,287,3.0,-999.0,90,-99.99,,,-99.99,,2013-09-28 13:22:00,
2013-09-28 08:52:00,45.0,42.0,29.70,WNW,287,1.0,-999.0,90,-99.99,,,-99.99,,2013-09-28 13:52:00,
2013-09-28 09:12:00,46.0,43.0,29.71,WNW,287,3.0,-999.0,88,-99.99,,,-99.99,,2013-09-28 14:12:00,
2013-09-28 09:21:00,46.0,42.0,29.70,WNW,287,4.0,-999.0,87,-99.99,,,-99.99,,2013-09-28 14:21:00,
2013-09-28 09:42:00,47.0,43.0,29.70,WNW,287,3.0,-999.0,87,-99.99,,,-99.99,,2013-09-28 14:42:00,
2013-09-28 09:52:00,47.0,43.0,29.69,WNW,287,3.0,-999.0,87,-99.99,,,-99.99,,2013-09-28 14:52:00,
2013-09-28 10:12:00,48.0,44.0,29.69,WNW,286,5.0,-999.0,85,-99.99,,,-99.99,,2013-09-28 15:12:00,
2013-09-28 10:23:00,49.0,44.0,29.69,West,269,7.0,-999.0,83,-99.99,,,-99.99,,2013-09-28 15:23:00,
2013-09-28 10:44:00,50.0,44.0,29.69,West,273,6.0,-999.0,80,-99.99,,,-99.99,,2013-09-28 15:44:00,
2013-09-28 10:54:00,51.0,44.0,29.69,West,276,6.0,-999.0,78,-99.99,,,-99.99,,2013-09-28 15:54:00,
2013-09-28 11:14:00,52.0,44.0,29.69,WNW,282,8.0,-999.0,74,-99.99,,,-99.99,,2013-09-28 16:14:00,
2013-09-28 11:24:00,53.0,45.0,29.68,WNW,296,7.0,-999.0,74,-99.99,,,-99.99,,2013-09-28 16:24:00,
2013-09-28 11:43:00,54.0,45.0,29.68,West,273,8.0,-999.0,72,-99.99,,,-99.99,,2013-09-28 16:43:00,
2013-09-28 11:54:00,55.0,44.0,29.68,West,264,9.0,-999.0,67,-99.99,,,-99.99,,2013-09-28 16:54:00,
2013-09-28 12:13:00,56.0,45.0,29.67,SW,229,10.0,-999.0,66,-99.99,,,-99.99,,2013-09-28 17:13:00,
2013-09-28 12:23:00,58.0,46.0,29.67,West,277,10.0,-999.0,65,-99.99,,,-99.99,,2013-09-28 17:23:00,
2013-09-28 12:52:00,59.0,45.0,29.67,West,272,11.0,-999.0,59,-99.99,,,-99.99,,2013-09-28 17:52:00,
2013-09-28 13:12:00,60.0,47.0,29.66,WSW,257,9.0,-999.0,61,-99.99,,,-99.99,,2013-09-28 18:12:00,
2013-09-28 13:22:00,60.0,45.0,29.66,West,263,11.0,-999.0,58,-99.99,,,-99.99,,2013-09-28 18:22:00,
2013-09-28 13:42:00,60.0,45.0,29.66,West,275,12.0,-999.0,58,-99.99,,,-99.99,,2013-09-28 18:42:00,
2013-09-28 13:52:00,61.0,47.0,29.65,West,265,12.0,-999.0,59,-99.99,,,-99.99,,2013-09-28 18:52:00,
2013-09-28 14:11:00,61.0,48.0,29.65,West,263,12.0,-999.0,62,-99.99,,,-99.99,,2013-09-28 19:11:00,
2013-09-28 14:21:00,61.0,47.0,29.65,West,261,13.0,-999.0,59,-99.99,,,-99.99,,2013-09-28 19:21:00,
2013-09-28 14:52:00,62.0,47.0,29.64,West,259,12.0,-999.0,57,-99.99,,,-99.99,,2013-09-28 19:52:00,
2013-09-28 15:12:00,62.0,46.0,29.65,West,281,14.0,-999.0,56,-99.99,,,-99.99,,2013-09-28 20:12:00,
2013-09-28 15:22:00,62.0,44.0,29.65,West,281,13.0,-999.0,52,-99.99,,,-99.99,,2013-09-28 20:22:00,
2013-09-28 15:43:00,63.0,44.0,29.65,WNW,288,13.0,-999.0,49,-99.99,,,-99.99,,2013-09-28 20:43:00,
2013-09-28 15:52:00,63.0,45.0,29.65,West,281,13.0,-999.0,52,-99.99,,,-99.99,,2013-09-28 20:52:00,
2013-09-28 16:12:00,63.0,44.0,29.65,West,273,13.0,-999.0,49,-99.99,,,-99.99,,2013-09-28 21:12:00,
2013-09-28 16:23:00,62.0,43.0,29.65,WNW,282,14.0,-999.0,50,-99.99,,,-99.99,,2013-09-28 21:23:00,
2013-09-28 16:55:00,62.0,44.0,29.65,WNW,296,10.0,-999.0,52,-99.99,,,-99.99,,2013-09-28 21:55:00,
2013-09-28 17:13:00,62.0,42.0,29.65,West,269,12.0,-999.0,48,-99.99,,,-99.99,,2013-09-28 22:13:00,
2013-09-28 17:23:00,61.0,41.0,29.66,WNW,287,14.0,-999.0,48,-99.99,,,-99.99,,2013-09-28 22:23:00,
2013-09-28 17:43:00,61.0,42.0,29.66,WNW,282,12.0,-999.0,49,-99.99,,,-99.99,,2013-09-28 22:43:00,
2013-09-28 17:54:00,62.0,41.0,29.66,West,280,13.0,-999.0,46,-99.99,,,-99.99,,2013-09-28 22:54:00,
2013-09-28 18:12:00,59.0,41.0,29.67,WSW,252,13.0,-999.0,52,-99.99,,,-99.99,,2013-09-28 23:12:00,
2013-09-28 18:22:00,58.0,42.0,29.67,West,261,9.0,-999.0,56,-99.99,,,-99.99,,2013-09-28 23:22:00,
2013-09-28 18:52:00,59.0,43.0,29.67,West,263,3.0,-999.0,55,-99.99,,,-99.99,,2013-09-28 23:52:00,
2013-09-28 19:11:00,60.0,44.0,29.67,West,262,1.0,-999.0,56,-99.99,,,-99.99,,2013-09-29 00:11:00,
2013-09-28 19:22:00,58.0,44.0,29.67,West,262,2.0,-999.0,59,-99.99,,,-99.99,,2013-09-29 00:22:00,
2013-09-28 19:43:00,56.0,44.0,29.67,WSW,258,4.0,-999.0,63,-99.99,,,-99.99,,2013-09-29 00:43:00,
2013-09-28 19:52:00,55.0,44.0,29.66,SW,218,4.0,-999.0,66,-99.99,,,-99.99,,2013-09-29 00:52:00,
2013-09-28 20:22:00,52.0,43.0,29.66,SW,215,3.0,-999.0,70,-99.99,,,-99.99,,2013-09-29 01:22:00,
2013-09-28 20:43:00,52.0,43.0,29.66,SW,215,4.0,-999.0,71,-99.99,,,-99.99,,2013-09-29 01:43:00,
2013-09-28 20:52:00,51.0,42.0,29.66,SW,215,0.0,-999.0,72,-99.99,,,-99.99,,2013-09-29 01:52:00,
2013-09-28 21:12:00,50.0,42.0,29.67,SW,214,0.0,-999.0,73,-99.99,,,-99.99,,2013-09-29 02:12:00,
2013-09-28 21:22:00,50.0,42.0,29.67,SW,214,1.0,-999.0,73,-99.99,,,-99.99,,2013-09-29 02:22:00,
2013-09-28 21:43:00,50.0,42.0,29.67,SW,229,1.0,-999.0,73,-99.99,,,-99.99,,2013-09-29 02:43:00,
2013-09-28 21:53:00,49.0,41.0,29.68,SW,231,1.0,-999.0,74,-99.99,,,-99.99,,2013-09-29 02:53:00,
2013-09-28 22:12:00,49.0,41.0,29.68,SW,231,2.0,-999.0,75,-99.99,,,-99.99,,2013-09-29 03:12:00,
2013-09-28 22:23:00,48.0,41.0,29.68,SW,231,1.0,-999.0,76,-99.99,,,-99.99,,2013-09-29 03:23:00,
2013-09-28 22:55:00,47.0,40.0,29.69,SW,230,0.0,-999.0,76,-99.99,,,-99.99,,2013-09-29 03:55:00,
2013-09-28 23:02:00,-999.0,-99.9,29.70,SW,230,0.0,-999.0,-999,-99.99,,,-99.99,,2013-09-29 04:02:00,
2013-09-28 23:14:00,47.0,40.0,29.70,SW,230,0.0,-999.0,77,-99.99,,,-99.99,,2013-09-29 04:14:00,
2013-09-28 23:24:00,47.0,40.0,29.69,SW,230,0.0,-999.0,77,-99.99,,,-99.99,,2013-09-29 04:24:00,
2013-09-28 23:54:00,46.0,40.0,29.69,SW,230,0.0,-999.0,78,-99.99,,,-99.99,,2013-09-29 04:54:00,